Time;durP1;ratioP1;P1;durP2;ratioP2;P2;SDS_P1;SDS_P2;PMS_P1;PMS_P2;Temp;Humidity;BMP_temperature;BMP_pressure;BME280_temperature;BME280_humidity;BME280_pressure;Samples;Min_cycle;Max_cycle;Signal;HPM_P1;HPM_P2
2023/07/27 00:01:40;;;;;;;3.30;3.00;;;;;;;;;;5152080;27;20202;-62
2023/07/27 00:04:06;;;;;;;3.28;2.97;;;;;;;;;;5153039;27;20198;-62
2023/07/27 00:06:34;;;;;;;3.42;2.90;;;;;;;;;;5155635;27;20204;-62
2023/07/27 00:09:00;;;;;;;4.85;2.90;;;;;;;;;;5155588;27;20527;-62
2023/07/27 00:11:27;;;;;;;3.22;3.03;;;;;;;;;;5143691;27;20491;-62
2023/07/27 00:13:53;;;;;;;2.72;2.53;;;;;;;;;;5151948;27;20269;-62
2023/07/27 00:16:19;;;;;;;2.83;2.63;;;;;;;;;;5154580;27;20484;-62
2023/07/27 00:18:45;;;;;;;3.10;2.90;;;;;;;;;;5155522;27;20532;-62
2023/07/27 00:21:12;;;;;;;2.95;2.70;;;;;;;;;;5153720;27;20534;-62
2023/07/27 00:23:39;;;;;;;3.13;2.92;;;;;;;;;;5151562;27;20486;-62
2023/07/27 00:26:06;;;;;;;3.03;2.83;;;;;;;;;;5152419;27;20506;-62
2023/07/27 00:28:32;;;;;;;3.22;3.03;;;;;;;;;;5155298;27;20285;-62
2023/07/27 00:30:58;;;;;;;2.50;2.40;;;;;;;;;;5155137;27;20223;-62
2023/07/27 00:33:24;;;;;;;4.13;3.28;;;;;;;;;;5151940;27;20195;-62
2023/07/27 00:35:54;;;;;;;3.65;3.35;;;;;;;;;;5151661;27;20220;-62
2023/07/27 00:38:20;;;;;;;3.92;2.70;;;;;;;;;;5154111;27;20202;-62
2023/07/27 00:40:48;;;;;;;2.83;2.72;;;;;;;;;;5155171;27;20201;-63
2023/07/27 00:43:14;;;;;;;3.72;3.28;;;;;;;;;;5153079;27;20197;-62
2023/07/27 00:45:40;;;;;;;3.35;3.08;;;;;;;;;;5151529;27;20199;-62
2023/07/27 00:48:08;;;;;;;4.72;3.10;;;;;;;;;;5152164;27;20460;-62
2023/07/27 00:50:35;;;;;;;5.07;3.35;;;;;;;;;;5154843;27;20198;-62
2023/07/27 00:53:02;;;;;;;4.18;3.30;;;;;;;;;;5155123;27;20501;-62
2023/07/27 00:55:28;;;;;;;3.25;2.90;;;;;;;;;;5155145;27;20505;-62
2023/07/27 00:57:56;;;;;;;4.07;3.03;;;;;;;;;;5155087;27;20207;-62
2023/07/27 01:00:22;;;;;;;3.67;3.35;;;;;;;;;;5152443;27;20485;-62
2023/07/27 01:02:49;;;;;;;4.85;3.72;;;;;;;;;;5151211;27;20202;-62
2023/07/27 01:05:16;;;;;;;6.72;3.53;;;;;;;;;;5152730;27;20243;-62
2023/07/27 01:07:42;;;;;;;4.63;3.72;;;;;;;;;;5155088;27;20205;-62
2023/07/27 01:10:09;;;;;;;6.07;3.25;;;;;;;;;;5154318;27;20242;-62
2023/07/27 01:12:39;;;;;;;4.05;3.22;;;;;;;;;;5151052;27;20259;-62
2023/07/27 01:15:07;;;;;;;5.82;3.22;;;;;;;;;;5154598;27;20427;-62
2023/07/27 01:17:36;;;;;;;3.30;3.03;;;;;;;;;;5158785;27;20201;-62
2023/07/27 01:20:06;;;;;;;3.67;3.38;;;;;;;;;;5159010;27;20198;-62
2023/07/27 01:22:43;;;;;;;3.95;3.65;;;;;;;;;;5147133;27;20194;-62
2023/07/27 01:25:21;;;;;;;4.70;3.58;;;;;;;;;;5155745;27;20205;-62
2023/07/27 01:27:51;;;;;;;4.20;3.90;;;;;;;;;;5158620;27;20217;-62
2023/07/27 01:30:36;;;;;;;5.28;3.40;;;;;;;;;;5156587;27;20198;-62
2023/07/27 01:33:06;;;;;;;3.85;3.50;;;;;;;;;;5154892;27;20198;-62
2023/07/27 01:35:34;;;;;;;9.48;3.88;;;;;;;;;;5146823;27;20459;-62
2023/07/27 01:38:02;;;;;;;5.03;3.47;;;;;;;;;;5162819;27;20197;-62
2023/07/27 01:40:29;;;;;;;4.68;3.30;;;;;;;;;;5155136;27;20387;-62
2023/07/27 01:42:56;;;;;;;3.97;3.53;;;;;;;;;;5154797;27;20384;-62
2023/07/27 01:48:26;;;;;;;4.40;3.80;;;;;;;;;;5155387;27;20256;-62
2023/07/27 01:50:53;;;;;;;6.15;3.20;;;;;;;;;;5154669;27;20198;-62
2023/07/27 01:53:20;;;;;;;7.40;2.95;;;;;;;;;;5156316;27;20498;-62
2023/07/27 01:55:47;;;;;;;3.80;3.20;;;;;;;;;;5158283;27;20197;-62
2023/07/27 01:58:14;;;;;;;5.63;2.95;;;;;;;;;;5156956;27;20517;-62
2023/07/27 02:00:41;;;;;;;3.25;3.00;;;;;;;;;;5154382;27;20214;-62
2023/07/27 02:03:07;;;;;;;5.38;3.03;;;;;;;;;;5154068;27;20209;-62
2023/07/27 02:05:35;;;;;;;3.70;3.40;;;;;;;;;;5157925;27;20198;-62
2023/07/27 02:08:01;;;;;;;4.22;3.80;;;;;;;;;;5158169;27;20201;-62
2023/07/27 02:10:28;;;;;;;3.72;3.45;;;;;;;;;;5155075;27;20202;-62
2023/07/27 02:12:58;;;;;;;3.63;3.33;;;;;;;;;;5154095;27;20254;-62
2023/07/27 02:15:27;;;;;;;3.80;3.42;;;;;;;;;;5156839;27;20513;-62
2023/07/27 02:17:55;;;;;;;3.38;3.15;;;;;;;;;;5157664;27;20198;-62
2023/07/27 02:20:22;;;;;;;3.80;3.50;;;;;;;;;;5155888;27;20201;-62
2023/07/27 02:22:50;;;;;;;4.88;3.60;;;;;;;;;;5153945;27;20202;-62
2023/07/27 02:25:17;;;;;;;3.70;3.40;;;;;;;;;;5153920;27;20207;-62
2023/07/27 02:27:44;;;;;;;4.30;3.50;;;;;;;;;;5157373;27;20218;-62
2023/07/27 02:30:11;;;;;;;4.53;3.80;;;;;;;;;;5157006;27;20202;-62
2023/07/27 02:32:37;;;;;;;4.07;3.85;;;;;;;;;;5153318;27;20217;-62
2023/07/27 02:35:03;;;;;;;5.57;3.65;;;;;;;;;;5153957;27;20202;-62
2023/07/27 02:37:30;;;;;;;5.88;3.90;;;;;;;;;;5156727;27;20198;-62
2023/07/27 02:39:57;;;;;;;4.03;3.58;;;;;;;;;;5157324;27;20198;-62
2023/07/27 02:42:24;;;;;;;4.20;3.80;;;;;;;;;;5154862;27;20219;-62
2023/07/27 02:44:50;;;;;;;5.47;3.63;;;;;;;;;;5153634;27;20479;-62
2023/07/27 02:47:16;;;;;;;4.13;3.63;;;;;;;;;;5154301;27;20375;-62
2023/07/27 02:49:42;;;;;;;7.60;3.83;;;;;;;;;;5157225;27;20202;-62
2023/07/27 02:52:09;;;;;;;4.60;4.18;;;;;;;;;;5156789;27;20501;-62
2023/07/27 02:54:35;;;;;;;5.55;3.92;;;;;;;;;;5156888;27;20205;-62
2023/07/27 02:57:02;;;;;;;4.95;3.40;;;;;;;;;;5156845;27;20194;-62
2023/07/27 02:59:29;;;;;;;3.85;3.10;;;;;;;;;;5154087;27;20200;-62
2023/07/27 03:01:55;;;;;;;4.47;3.10;;;;;;;;;;5152902;27;20190;-62
2023/07/27 03:04:22;;;;;;;3.90;3.60;;;;;;;;;;5154560;27;20199;-62
2023/07/27 03:06:49;;;;;;;7.55;4.38;;;;;;;;;;5156775;27;20194;-62
2023/07/27 03:09:15;;;;;;;5.47;3.90;;;;;;;;;;5156147;27;20193;-62
2023/07/27 03:11:41;;;;;;;4.53;4.13;;;;;;;;;;5152689;27;20424;-62
2023/07/27 03:14:09;;;;;;;4.22;3.92;;;;;;;;;;5152921;27;20194;-62
2023/07/27 03:16:35;;;;;;;7.43;4.03;;;;;;;;;;5156489;27;20197;-62
2023/07/27 03:19:01;;;;;;;5.35;3.92;;;;;;;;;;5156644;27;20200;-62
2023/07/27 03:21:27;;;;;;;3.78;3.17;;;;;;;;;;5153954;27;20224;-62
2023/07/27 03:23:54;;;;;;;3.65;3.35;;;;;;;;;;5152764;27;20201;-62
2023/07/27 03:26:20;;;;;;;5.30;3.30;;;;;;;;;;5153853;27;20194;-62
2023/07/27 03:28:46;;;;;;;5.03;3.28;;;;;;;;;;5156149;27;20537;-62
2023/07/27 03:31:18;;;;;;;4.70;3.50;;;;;;;;;;5156025;27;20197;-62
2023/07/27 03:33:44;;;;;;;7.03;3.70;;;;;;;;;;5152597;27;20235;-62
2023/07/27 03:36:10;;;;;;;4.32;3.20;;;;;;;;;;5152625;27;20263;-62
2023/07/27 03:38:37;;;;;;;3.75;3.45;;;;;;;;;;5155920;27;20200;-62
2023/07/27 03:41:03;;;;;;;3.35;3.10;;;;;;;;;;5156053;27;20200;-62
2023/07/27 03:43:29;;;;;;;3.17;2.97;;;;;;;;;;5153261;27;20201;-62
2023/07/27 03:45:55;;;;;;;6.22;3.28;;;;;;;;;;5152573;27;20400;-62
2023/07/27 03:48:23;;;;;;;3.92;3.50;;;;;;;;;;5153508;27;20197;-62
2023/07/27 03:50:49;;;;;;;3.50;2.95;;;;;;;;;;5155916;27;20390;-62
2023/07/27 03:53:15;;;;;;;4.45;3.30;;;;;;;;;;5155072;27;20217;-62
2023/07/27 03:55:42;;;;;;;3.80;3.40;;;;;;;;;;5152176;27;20202;-62
2023/07/27 03:58:08;;;;;;;8.77;3.58;;;;;;;;;;5152135;27;20201;-62
2023/07/27 04:00:34;;;;;;;3.25;3.05;;;;;;;;;;5155001;27;20205;-62
2023/07/27 04:03:01;;;;;;;6.22;3.22;;;;;;;;;;5155491;27;20190;-62
2023/07/27 04:05:31;;;;;;;4.18;3.35;;;;;;;;;;5153540;27;20205;-62
2023/07/27 04:07:57;;;;;;;5.38;3.63;;;;;;;;;;5152006;27;20265;-62
2023/07/27 04:10:24;;;;;;;4.13;3.83;;;;;;;;;;5153250;27;20194;-62
2023/07/27 04:12:51;;;;;;;4.25;3.65;;;;;;;;;;5155492;27;20213;-63
2023/07/27 04:15:17;;;;;;;4.47;4.00;;;;;;;;;;5155166;27;20200;-63
2023/07/27 04:17:43;;;;;;;4.90;3.75;;;;;;;;;;5151890;27;20231;-63
2023/07/27 04:20:10;;;;;;;5.10;3.88;;;;;;;;;;5151833;27;20208;-63
2023/07/27 04:22:38;;;;;;;4.00;3.70;;;;;;;;;;5154729;27;20197;-63
2023/07/27 04:25:05;;;;;;;3.58;3.28;;;;;;;;;;5155271;27;20395;-63
2023/07/27 04:27:31;;;;;;;3.97;3.30;;;;;;;;;;5152991;27;20453;-62
2023/07/27 04:29:57;;;;;;;4.80;3.42;;;;;;;;;;5151903;27;20195;-63
2023/07/27 04:32:23;;;;;;;5.75;4.13;;;;;;;;;;5152561;27;20271;-63
2023/07/27 04:34:50;;;;;;;6.25;4.10;;;;;;;;;;5155362;27;20350;-63
2023/07/27 04:37:16;;;;;;;5.13;4.15;;;;;;;;;;5155038;27;20197;-63
2023/07/27 04:39:43;;;;;;;5.78;4.30;;;;;;;;;;5151497;27;20194;-63
2023/07/27 04:42:10;;;;;;;6.22;4.00;;;;;;;;;;5151511;27;20363;-63
2023/07/27 04:44:36;;;;;;;9.02;4.60;;;;;;;;;;5154586;27;20206;-63
2023/07/27 04:47:02;;;;;;;4.32;3.92;;;;;;;;;;5155273;27;20193;-63
2023/07/27 04:49:29;;;;;;;6.00;4.53;;;;;;;;;;5155608;27;20197;-63
2023/07/27 04:51:55;;;;;;;3.92;3.63;;;;;;;;;;5155640;27;20218;-63
2023/07/27 04:54:21;;;;;;;5.22;3.58;;;;;;;;;;5156776;27;20198;-63
2023/07/27 04:56:49;;;;;;;9.02;3.67;;;;;;;;;;5159123;27;20194;-63
2023/07/27 04:59:15;;;;;;;4.10;3.78;;;;;;;;;;5159434;27;20264;-63
2023/07/27 05:01:41;;;;;;;4.00;3.70;;;;;;;;;;5155200;27;20205;-63
2023/07/27 05:04:08;;;;;;;4.95;4.13;;;;;;;;;;5155474;27;20200;-63
2023/07/27 05:06:35;;;;;;;5.45;4.88;;;;;;;;;;5157783;27;20381;-63
2023/07/27 05:09:02;;;;;;;6.82;4.68;;;;;;;;;;5159118;27;20200;-63
2023/07/27 05:11:28;;;;;;;5.07;4.10;;;;;;;;;;5157997;27;20201;-63
2023/07/27 05:13:56;;;;;;;5.38;4.50;;;;;;;;;;5155480;27;20401;-63
2023/07/27 05:16:22;;;;;;;4.72;3.90;;;;;;;;;;5155880;27;20217;-63
2023/07/27 05:18:48;;;;;;;8.80;3.83;;;;;;;;;;5158800;27;20194;-63
2023/07/27 05:21:15;;;;;;;5.88;3.70;;;;;;;;;;5158787;27;20200;-63
2023/07/27 05:23:41;;;;;;;5.90;3.70;;;;;;;;;;5154849;27;20495;-63
2023/07/27 05:26:07;;;;;;;3.88;3.47;;;;;;;;;;5155457;27;20524;-63
2023/07/27 05:28:33;;;;;;;3.45;3.25;;;;;;;;;;5157459;27;20546;-63
2023/07/27 05:31:01;;;;;;;3.60;3.30;;;;;;;;;;5158716;27;20484;-63
2023/07/27 05:33:27;;;;;;;4.40;3.00;;;;;;;;;;5156817;27;20205;-63
2023/07/27 05:35:54;;;;;;;3.42;3.22;;;;;;;;;;5155314;27;20381;-63
2023/07/27 05:38:21;;;;;;;3.88;3.53;;;;;;;;;;5155137;27;20190;-63
2023/07/27 05:40:47;;;;;;;7.28;3.80;;;;;;;;;;5158450;27;20519;-63
2023/07/27 05:43:13;;;;;;;4.43;4.03;;;;;;;;;;5158535;27;20190;-63
2023/07/27 05:45:39;;;;;;;4.40;3.85;;;;;;;;;;5155851;27;20206;-63
2023/07/27 05:48:07;;;;;;;4.18;3.75;;;;;;;;;;5152772;27;20230;-63
2023/07/27 05:50:34;;;;;;;4.15;3.75;;;;;;;;;;5155937;27;20202;-63
2023/07/27 05:53:00;;;;;;;6.43;3.50;;;;;;;;;;5154556;27;20526;-63
2023/07/27 05:55:27;;;;;;;6.20;3.90;;;;;;;;;;5155397;27;20194;-63
2023/07/27 05:57:53;;;;;;;4.28;3.63;;;;;;;;;;5158347;27;20200;-63
2023/07/27 06:00:20;;;;;;;3.70;3.40;;;;;;;;;;5157848;27;20204;-63
2023/07/27 06:02:46;;;;;;;6.78;4.15;;;;;;;;;;5157789;27;20217;-63
2023/07/27 06:05:14;;;;;;;4.60;4.20;;;;;;;;;;5157942;27;20208;-63
2023/07/27 06:07:40;;;;;;;7.30;5.03;;;;;;;;;;5155028;27;20232;-63
2023/07/27 06:10:07;;;;;;;7.20;3.85;;;;;;;;;;5154477;27;20497;-63
2023/07/27 06:12:33;;;;;;;5.18;4.20;;;;;;;;;;5155597;27;20277;-63
2023/07/27 06:15:00;;;;;;;8.10;4.35;;;;;;;;;;5157759;27;20250;-63
2023/07/27 06:17:27;;;;;;;5.65;3.85;;;;;;;;;;5156716;27;20194;-63
2023/07/27 06:19:53;;;;;;;5.68;4.25;;;;;;;;;;5154056;27;20367;-63
2023/07/27 06:22:21;;;;;;;4.32;3.92;;;;;;;;;;5154099;27;20502;-63
2023/07/27 06:24:47;;;;;;;5.80;3.30;;;;;;;;;;5145774;27;20196;-63
2023/07/27 06:27:13;;;;;;;5.85;3.65;;;;;;;;;;5153955;27;20214;-63
2023/07/27 06:29:40;;;;;;;6.55;3.45;;;;;;;;;;5156656;27;20202;-63
2023/07/27 06:32:06;;;;;;;5.32;3.58;;;;;;;;;;5159567;27;20448;-63
2023/07/27 06:34:33;;;;;;;8.80;3.30;;;;;;;;;;5155749;27;20205;-63
2023/07/27 06:36:59;;;;;;;8.10;3.78;;;;;;;;;;5157649;27;20456;-63
2023/07/27 06:39:27;;;;;;;6.57;3.10;;;;;;;;;;5156965;27;20194;-63
2023/07/27 06:41:53;;;;;;;2.60;2.45;;;;;;;;;;5153793;27;20511;-63
2023/07/27 06:44:19;;;;;;;7.15;2.95;;;;;;;;;;5153771;27;20225;-63
2023/07/27 06:46:45;;;;;;;5.82;2.97;;;;;;;;;;5156837;27;20197;-64
2023/07/27 06:49:12;;;;;;;6.63;2.90;;;;;;;;;;5157276;27;20201;-63
2023/07/27 06:51:38;;;;;;;11.70;3.05;;;;;;;;;;5154759;27;20204;-63
2023/07/27 06:54:05;;;;;;;3.92;3.17;;;;;;;;;;5151843;27;20230;-63
2023/07/27 06:56:32;;;;;;;4.88;2.95;;;;;;;;;;5149068;27;20204;-64
2023/07/27 06:58:59;;;;;;;5.03;2.75;;;;;;;;;;5126589;27;20567;-58
2023/07/27 07:01:25;;;;;;;3.55;2.75;;;;;;;;;;5129856;27;20210;-58
2023/07/27 07:03:51;;;;;;;4.03;2.75;;;;;;;;;;5137249;27;20203;-57
2023/07/27 07:06:18;;;;;;;3.42;2.47;;;;;;;;;;5137055;27;20229;-56
2023/07/27 07:08:44;;;;;;;3.08;2.55;;;;;;;;;;5139778;27;20207;-57
2023/07/27 07:11:10;;;;;;;2.78;2.58;;;;;;;;;;5138645;27;20213;-57
2023/07/27 07:13:38;;;;;;;3.78;2.70;;;;;;;;;;5135355;27;20237;-57
2023/07/27 07:16:05;;;;;;;3.55;2.65;;;;;;;;;;5138851;27;20284;-56
2023/07/27 07:18:31;;;;;;;3.35;2.70;;;;;;;;;;5137704;27;20214;-57
2023/07/27 07:20:57;;;;;;;6.47;2.47;;;;;;;;;;5132779;27;20282;-58
2023/07/27 07:23:24;;;;;;;2.83;2.60;;;;;;;;;;5132940;27;20543;-57
2023/07/27 07:25:50;;;;;;;2.90;2.20;;;;;;;;;;5129034;27;20213;-58
2023/07/27 07:28:18;;;;;;;4.07;3.00;;;;;;;;;;5141246;27;20230;-58
2023/07/27 07:30:46;;;;;;;2.42;2.17;;;;;;;;;;5135841;27;20217;-57
2023/07/27 07:33:12;;;;;;;4.50;2.33;;;;;;;;;;5132750;27;20229;-58
2023/07/27 07:35:39;;;;;;;3.63;2.42;;;;;;;;;;5133316;27;20721;-56
2023/07/27 07:38:06;;;;;;;7.07;2.60;;;;;;;;;;5132679;27;20255;-57
2023/07/27 07:40:32;;;;;;;3.58;2.40;;;;;;;;;;5138494;27;20217;-57
2023/07/27 07:42:58;;;;;;;2.88;1.98;;;;;;;;;;5124186;27;20247;-56
2023/07/27 07:45:25;;;;;;;2.80;2.60;;;;;;;;;;5129300;27;20213;-57
2023/07/27 07:47:52;;;;;;;4.00;2.47;;;;;;;;;;5123969;27;20244;-57
2023/07/27 07:50:18;;;;;;;2.65;2.22;;;;;;;;;;5122540;27;20435;-57
2023/07/27 07:52:45;;;;;;;2.65;2.20;;;;;;;;;;5136967;27;20282;-57
2023/07/27 07:55:11;;;;;;;4.72;2.47;;;;;;;;;;5133349;27;20206;-55
2023/07/27 07:57:38;;;;;;;3.38;2.30;;;;;;;;;;5129639;27;20210;-57
2023/07/27 08:00:04;;;;;;;4.18;2.28;;;;;;;;;;5120757;28;20211;-57
2023/07/27 08:02:31;;;;;;;5.25;2.17;;;;;;;;;;5132580;27;20514;-55
2023/07/27 08:04:59;;;;;;;2.80;2.60;;;;;;;;;;5131405;27;20202;-55
2023/07/27 08:07:26;;;;;;;4.32;2.03;;;;;;;;;;5138778;27;20236;-55
2023/07/27 08:09:52;;;;;;;4.00;2.55;;;;;;;;;;5134927;27;20509;-56
2023/07/27 08:12:18;;;;;;;2.15;2.05;;;;;;;;;;5133218;27;20207;-57
2023/07/27 08:14:44;;;;;;;2.35;2.00;;;;;;;;;;5133837;27;20234;-57
2023/07/27 08:17:11;;;;;;;3.75;1.92;;;;;;;;;;5140368;27;20213;-57
2023/07/27 08:19:37;;;;;;;4.30;2.42;;;;;;;;;;5130024;27;20277;-57
2023/07/27 08:22:05;;;;;;;2.72;2.40;;;;;;;;;;5131467;27;20206;-59
2023/07/27 08:24:32;;;;;;;2.97;2.25;;;;;;;;;;5136336;27;20210;-58
2023/07/27 08:26:59;;;;;;;2.17;2.00;;;;;;;;;;5136639;27;20206;-58
2023/07/27 08:29:25;;;;;;;2.40;2.20;;;;;;;;;;5124131;27;20662;-58
2023/07/27 08:31:52;;;;;;;3.17;2.67;;;;;;;;;;5138053;27;20207;-58
2023/07/27 08:34:18;;;;;;;2.45;2.25;;;;;;;;;;5135711;27;20578;-57
2023/07/27 08:36:50;;;;;;;5.45;2.20;;;;;;;;;;5133160;27;20517;-57
2023/07/27 08:39:18;;;;;;;2.40;2.20;;;;;;;;;;5125650;27;20211;-56
2023/07/27 08:41:44;;;;;;;2.10;1.95;;;;;;;;;;5137528;27;20217;-57
2023/07/27 08:44:12;;;;;;;2.55;1.88;;;;;;;;;;5128122;27;20205;-58
2023/07/27 08:46:38;;;;;;;5.00;2.40;;;;;;;;;;5139393;27;20475;-58
2023/07/27 08:49:05;;;;;;;2.55;2.35;;;;;;;;;;5124892;28;20570;-57
2023/07/27 08:51:34;;;;;;;3.67;2.45;;;;;;;;;;5125725;27;20212;-57
2023/07/27 08:54:00;;;;;;;5.10;2.05;;;;;;;;;;5138967;27;20394;-59
2023/07/27 08:56:28;;;;;;;3.63;2.03;;;;;;;;;;5128142;27;20423;-58
2023/07/27 08:58:55;;;;;;;3.55;2.00;;;;;;;;;;5135064;27;20206;-56
2023/07/27 09:01:23;;;;;;;5.78;2.17;;;;;;;;;;5134123;27;20210;-56
2023/07/27 09:03:49;;;;;;;2.22;2.13;;;;;;;;;;5124639;27;20457;-58
2023/07/27 09:06:15;;;;;;;2.67;2.33;;;;;;;;;;5134971;27;20206;-58
2023/07/27 09:08:42;;;;;;;2.92;2.55;;;;;;;;;;5133516;27;20534;-58
2023/07/27 09:11:09;;;;;;;3.72;2.53;;;;;;;;;;5137530;28;20212;-56
2023/07/27 09:13:36;;;;;;;3.40;2.33;;;;;;;;;;5132143;27;20293;-55
2023/07/27 09:16:05;;;;;;;6.97;2.38;;;;;;;;;;5136197;27;20207;-58
2023/07/27 09:18:34;;;;;;;3.28;2.00;;;;;;;;;;5135947;27;20251;-57
2023/07/27 09:21:05;;;;;;;8.20;2.90;;;;;;;;;;5130868;28;20400;-57
2023/07/27 09:23:32;;;;;;;2.47;2.28;;;;;;;;;;5129807;27;20207;-58
2023/07/27 09:25:58;;;;;;;5.32;2.47;;;;;;;;;;5139659;27;20206;-56
2023/07/27 09:28:25;;;;;;;2.72;2.53;;;;;;;;;;5138981;27;20227;-57
2023/07/27 09:30:57;;;;;;;5.40;2.25;;;;;;;;;;5138618;27;20221;-57
2023/07/27 09:33:23;;;;;;;3.70;2.20;;;;;;;;;;5138986;27;20230;-57
2023/07/27 09:35:50;;;;;;;5.90;2.30;;;;;;;;;;5142343;27;20226;-56
2023/07/27 09:38:16;;;;;;;2.00;1.90;;;;;;;;;;5140103;27;20247;-58
2023/07/27 09:40:42;;;;;;;2.22;1.95;;;;;;;;;;5142574;27;20226;-59
2023/07/27 09:43:09;;;;;;;2.40;1.77;;;;;;;;;;5136472;27;20482;-58
2023/07/27 09:45:36;;;;;;;3.03;2.08;;;;;;;;;;5125295;27;20211;-55
2023/07/27 09:48:03;;;;;;;3.10;2.05;;;;;;;;;;5132679;27;20271;-57
2023/07/27 09:50:30;;;;;;;2.65;2.10;;;;;;;;;;5127329;27;20514;-58
2023/07/27 09:52:57;;;;;;;2.88;2.05;;;;;;;;;;5130511;27;20207;-58
2023/07/27 09:55:25;;;;;;;2.33;2.00;;;;;;;;;;5129465;27;20222;-57
2023/07/27 09:57:52;;;;;;;3.22;2.10;;;;;;;;;;5133472;27;20210;-56
2023/07/27 10:00:19;;;;;;;2.65;2.30;;;;;;;;;;5137194;27;20428;-57
2023/07/27 10:02:45;;;;;;;5.30;2.60;;;;;;;;;;5135707;27;20247;-58
2023/07/27 10:05:13;;;;;;;4.70;2.78;;;;;;;;;;5142498;27;20202;-57
2023/07/27 10:07:39;;;;;;;2.65;2.38;;;;;;;;;;5138132;27;20217;-57
2023/07/27 10:10:24;;;;;;;3.42;2.33;;;;;;;;;;5131509;27;20207;-58
2023/07/27 10:12:50;;;;;;;4.38;2.58;;;;;;;;;;5133164;27;20214;-57
2023/07/27 10:15:20;;;;;;;2.60;2.20;;;;;;;;;;5141771;27;20230;-58
2023/07/27 10:17:47;;;;;;;4.88;2.17;;;;;;;;;;5139320;27;20227;-58
2023/07/27 10:20:24;;;;;;;2.35;1.75;;;;;;;;;;5142641;27;20210;-58
2023/07/27 10:22:52;;;;;;;4.10;2.05;;;;;;;;;;5133762;27;20534;-58
2023/07/27 10:25:18;;;;;;;3.83;2.10;;;;;;;;;;5142282;27;20251;-58
2023/07/27 10:27:54;;;;;;;3.03;2.13;;;;;;;;;;5132929;27;20268;-58
2023/07/27 10:30:21;;;;;;;1.90;1.80;;;;;;;;;;5133242;27;20274;-60
2023/07/27 10:33:07;;;;;;;2.13;1.95;;;;;;;;;;5136905;27;20210;-57
2023/07/27 10:35:59;;;;;;;2.20;2.03;;;;;;;;;;5137848;27;20233;-57
2023/07/27 10:38:26;;;;;;;3.90;2.03;;;;;;;;;;5142384;27;20213;-56
2023/07/27 10:40:53;;;;;;;2.85;2.15;;;;;;;;;;5127793;27;20217;-56
2023/07/27 10:43:19;;;;;;;5.85;2.92;;;;;;;;;;5123814;27;20211;-57
2023/07/27 10:45:52;;;;;;;3.35;2.20;;;;;;;;;;5133627;27;20248;-57
2023/07/27 10:48:18;;;;;;;2.95;2.10;;;;;;;;;;5141747;27;20494;-56
2023/07/27 10:50:45;;;;;;;2.38;2.17;;;;;;;;;;5142527;27;20217;-57
2023/07/27 10:53:11;;;;;;;2.42;1.77;;;;;;;;;;5141602;27;20206;-56
2023/07/27 10:55:40;;;;;;;2.17;1.92;;;;;;;;;;5142225;27;20510;-57
2023/07/27 10:58:07;;;;;;;2.33;2.15;;;;;;;;;;5142110;27;20206;-57
2023/07/27 11:00:35;;;;;;;2.40;1.90;;;;;;;;;;5141705;27;20249;-57
2023/07/27 11:03:01;;;;;;;3.10;1.95;;;;;;;;;;5141318;27;20206;-57
2023/07/27 11:05:27;;;;;;;5.90;1.85;;;;;;;;;;5141356;27;20203;-57
2023/07/27 11:08:01;;;;;;;5.35;1.80;;;;;;;;;;5141751;27;20210;-57
2023/07/27 11:10:29;;;;;;;2.53;2.03;;;;;;;;;;5141867;27;20210;-57
2023/07/27 11:12:57;;;;;;;1.70;1.67;;;;;;;;;;5141420;27;20214;-57
2023/07/27 11:15:24;;;;;;;2.22;2.00;;;;;;;;;;5142076;27;20298;-58
2023/07/27 11:17:51;;;;;;;4.47;2.00;;;;;;;;;;5141932;27;20210;-58
2023/07/27 11:20:18;;;;;;;2.00;1.90;;;;;;;;;;5141779;27;20210;-56
2023/07/27 11:22:44;;;;;;;2.13;1.65;;;;;;;;;;5140856;27;20218;-57
2023/07/27 11:25:11;;;;;;;4.72;1.50;;;;;;;;;;5141493;27;20202;-57
2023/07/27 11:27:38;;;;;;;1.67;1.58;;;;;;;;;;5141378;27;20230;-56
2023/07/27 11:30:12;;;;;;;2.40;1.58;;;;;;;;;;5132594;27;20210;-57
2023/07/27 11:32:38;;;;;;;3.97;2.25;;;;;;;;;;5141572;27;20253;-57
2023/07/27 11:35:05;;;;;;;1.42;1.35;;;;;;;;;;5140988;27;20242;-57
2023/07/27 11:37:31;;;;;;;2.55;1.70;;;;;;;;;;5140941;27;20214;-57
2023/07/27 11:39:58;;;;;;;1.73;1.63;;;;;;;;;;5141045;27;20210;-57
2023/07/27 11:42:28;;;;;;;2.35;1.75;;;;;;;;;;5141134;27;20424;-57
2023/07/27 11:44:54;;;;;;;1.98;1.40;;;;;;;;;;5141400;27;20211;-57
2023/07/27 11:47:22;;;;;;;2.30;1.40;;;;;;;;;;5141258;27;20402;-57
2023/07/27 11:49:49;;;;;;;1.73;1.40;;;;;;;;;;5141086;27;20210;-57
2023/07/27 11:52:17;;;;;;;3.10;1.50;;;;;;;;;;5140915;27;20530;-55
2023/07/27 11:54:44;;;;;;;3.10;1.48;;;;;;;;;;5141026;27;20234;-58
2023/07/27 11:57:10;;;;;;;2.03;1.70;;;;;;;;;;5140392;27;20206;-56
2023/07/27 11:59:36;;;;;;;5.32;2.00;;;;;;;;;;5141259;27;20214;-56
2023/07/27 12:02:03;;;;;;;2.38;1.40;;;;;;;;;;5140558;27;20216;-55
2023/07/27 12:04:30;;;;;;;1.38;1.20;;;;;;;;;;5140685;27;20214;-55
2023/07/27 12:06:57;;;;;;;5.00;1.55;;;;;;;;;;5139995;27;20240;-55
2023/07/27 12:09:23;;;;;;;2.05;1.40;;;;;;;;;;5140689;27;20418;-57
2023/07/27 12:11:49;;;;;;;1.63;1.40;;;;;;;;;;5140091;27;20286;-58
2023/07/27 12:14:20;;;;;;;3.97;1.70;;;;;;;;;;5141203;27;20486;-57
2023/07/27 12:16:46;;;;;;;3.13;1.35;;;;;;;;;;5140397;27;20210;-57
2023/07/27 12:19:12;;;;;;;2.35;1.75;;;;;;;;;;5140674;27;20398;-57
2023/07/27 12:21:40;;;;;;;4.65;1.75;;;;;;;;;;5140386;27;20516;-57
2023/07/27 12:24:08;;;;;;;2.88;1.42;;;;;;;;;;5140527;27;20240;-55
2023/07/27 12:26:34;;;;;;;2.15;1.77;;;;;;;;;;5140605;27;20287;-56
2023/07/27 12:29:00;;;;;;;4.10;1.77;;;;;;;;;;5140810;27;20230;-57
2023/07/27 12:31:26;;;;;;;1.85;1.75;;;;;;;;;;5140709;27;20210;-56
2023/07/27 12:33:53;;;;;;;1.38;1.27;;;;;;;;;;5140555;27;20446;-56
2023/07/27 12:36:19;;;;;;;2.03;1.60;;;;;;;;;;5139775;27;20218;-56
2023/07/27 12:38:47;;;;;;;3.33;1.40;;;;;;;;;;5139911;27;20217;-57
2023/07/27 12:41:14;;;;;;;2.22;1.55;;;;;;;;;;5140377;27;20510;-57
2023/07/27 12:43:40;;;;;;;1.60;1.60;;;;;;;;;;5140279;27;20255;-57
2023/07/27 12:46:06;;;;;;;2.63;1.83;;;;;;;;;;5140590;27;20295;-57
2023/07/27 12:48:33;;;;;;;1.67;1.60;;;;;;;;;;5140113;27;20217;-56
2023/07/27 12:50:59;;;;;;;1.90;1.80;;;;;;;;;;5140136;27;20281;-56
2023/07/27 12:53:25;;;;;;;2.75;2.10;;;;;;;;;;5139402;27;20206;-56
2023/07/27 12:55:53;;;;;;;2.67;1.88;;;;;;;;;;5140277;27;20233;-56
2023/07/27 12:58:19;;;;;;;2.92;1.63;;;;;;;;;;5140893;27;20502;-57
2023/07/27 13:00:45;;;;;;;8.00;1.90;;;;;;;;;;5140146;27;20409;-57
2023/07/27 13:03:12;;;;;;;2.03;1.67;;;;;;;;;;5140350;27;20409;-55
2023/07/27 13:05:38;;;;;;;2.95;1.45;;;;;;;;;;5140023;27;20210;-57
2023/07/27 13:08:04;;;;;;;1.38;1.38;;;;;;;;;;5139436;27;20210;-57
2023/07/27 13:10:30;;;;;;;1.30;1.30;;;;;;;;;;5143017;27;20210;-57
2023/07/27 13:12:58;;;;;;;1.95;1.48;;;;;;;;;;5144224;27;20216;-57
2023/07/27 13:15:24;;;;;;;1.80;1.70;;;;;;;;;;5143949;27;20226;-57
2023/07/27 13:17:52;;;;;;;1.98;1.50;;;;;;;;;;5144828;27;20386;-56
2023/07/27 13:20:18;;;;;;;3.42;1.38;;;;;;;;;;5144244;27;20567;-57
2023/07/27 13:22:45;;;;;;;1.40;1.30;;;;;;;;;;5143399;27;20217;-58
2023/07/27 13:25:11;;;;;;;1.65;1.55;;;;;;;;;;5139919;27;20206;-57
2023/07/27 13:27:37;;;;;;;1.38;1.38;;;;;;;;;;5144018;27;20230;-56
2023/07/27 13:30:05;;;;;;;1.52;1.42;;;;;;;;;;5143960;27;20248;-58
2023/07/27 13:32:32;;;;;;;1.90;1.80;;;;;;;;;;5143489;27;20214;-55
2023/07/27 13:34:59;;;;;;;1.50;1.50;;;;;;;;;;5143735;27;20241;-57
2023/07/27 13:37:25;;;;;;;1.90;1.80;;;;;;;;;;5143635;27;20206;-57
2023/07/27 13:39:51;;;;;;;3.60;2.08;;;;;;;;;;5143836;27;20210;-56
2023/07/27 13:42:17;;;;;;;4.45;1.75;;;;;;;;;;5143714;27;20243;-56
2023/07/27 13:44:44;;;;;;;3.83;1.88;;;;;;;;;;5143243;27;20287;-57
2023/07/27 13:47:11;;;;;;;3.15;1.70;;;;;;;;;;5143583;27;20207;-56
2023/07/27 13:49:38;;;;;;;1.60;1.50;;;;;;;;;;5143386;27;20206;-56
2023/07/27 13:52:04;;;;;;;2.67;1.70;;;;;;;;;;5143011;27;20210;-57
2023/07/27 13:54:31;;;;;;;1.65;1.63;;;;;;;;;;5143190;27;20518;-56
2023/07/27 13:56:57;;;;;;;2.35;1.80;;;;;;;;;;5143407;27;20522;-57
2023/07/27 13:59:23;;;;;;;1.65;1.60;;;;;;;;;;5144000;27;20560;-57
2023/07/27 14:01:49;;;;;;;8.27;2.20;;;;;;;;;;5142424;27;20446;-58
2023/07/27 14:04:17;;;;;;;5.90;2.40;;;;;;;;;;5142310;27;20222;-57
2023/07/27 14:06:44;;;;;;;4.93;2.00;;;;;;;;;;5142766;27;20498;-56
2023/07/27 14:09:10;;;;;;;4.50;1.90;;;;;;;;;;5142567;27;20206;-56
2023/07/27 14:11:37;;;;;;;3.90;2.15;;;;;;;;;;5142657;27;20539;-58
2023/07/27 14:14:04;;;;;;;8.50;2.00;;;;;;;;;;5142639;27;20405;-58
2023/07/27 14:16:30;;;;;;;5.78;2.10;;;;;;;;;;5142323;27;20541;-57
2023/07/27 14:18:57;;;;;;;4.45;1.83;;;;;;;;;;5142648;27;20556;-56
2023/07/27 14:21:24;;;;;;;5.68;2.10;;;;;;;;;;5142924;27;20210;-57
2023/07/27 14:23:50;;;;;;;1.63;1.52;;;;;;;;;;5142510;27;20214;-57
2023/07/27 14:26:17;;;;;;;3.20;1.75;;;;;;;;;;5142345;27;20202;-57
2023/07/27 14:28:43;;;;;;;4.30;2.15;;;;;;;;;;5142235;27;20230;-56
2023/07/27 14:31:09;;;;;;;2.28;2.00;;;;;;;;;;5142926;27;20210;-58
2023/07/27 14:33:36;;;;;;;3.10;1.98;;;;;;;;;;5142351;27;20210;-57
2023/07/27 14:36:02;;;;;;;3.10;2.00;;;;;;;;;;5141976;27;20222;-58
2023/07/27 14:38:30;;;;;;;2.58;2.10;;;;;;;;;;5142539;27;20406;-57
2023/07/27 14:40:56;;;;;;;4.38;1.90;;;;;;;;;;5141709;27;20210;-58
2023/07/27 14:43:23;;;;;;;2.20;2.00;;;;;;;;;;5142155;27;20214;-58
2023/07/27 14:45:49;;;;;;;1.90;1.80;;;;;;;;;;5142109;27;20248;-58